Coperto con pioggia leggera
Coperto con pioggia leggera
Coperto con pioggia leggera
Variabile
Coperto
Coperto
Coperto
(°C)
10°
10°
11°
11°
11°
11°
12°
12°
12°
12°
(°C)
SW
SW
SW
SW
SSW
SSW
S
(km/h)
20-33
19-32
19-28
19-30
18-32
18-34
20-36
(mm)
0
0.1
0
0
0
0
0
(%)
70
65
65
35
17
0
0

Elevazione del sole

/ 11.5°
sun-icon
UV 1
07:22
17:48
Gibbosa crescente (157°)
15:15
07:16

METAR per Bordenau (EDDV)

Ora Condizioni Temperatura/
Punto di rugiada
Vento Visibilità Meteo Nuvole Pressione Cambiamento Grezzo
IFR 9°C / 8°C 210º variable 180º to 240º 7kt 2500m Light Rain Light Drizzle Mist 0.20mm precipitation Scattered Clouds 600ft
Overcast 1100ft
994 Temporary: Visibility 4000. Drizzle . Broken Clouds 600ft. EDDV 220720Z AUTO 21007KT 180V240 2500 -RADZ BR SCT006 OVC011 09/08 Q0994 REDZ TEMPO 4000 DZ BKN006
MVFR 8°C / 8°C 200º variable 170º to 230º 6kt 6000m - Few Clouds 700ft
Overcast 1300ft
994 Temporary: Visibility 4000. Drizzle . Broken Clouds 700ft. EDDV 220650Z AUTO 20006KT 170V230 6000 FEW007 OVC013 08/08 Q0994 REDZ TEMPO 4000 DZ BKN007
MVFR 9°C / 7°C 200º variable 170º to 230º 7kt 9700m - Overcast 1200ft 995 Temporary: Visibility 4000. Drizzle . Broken Clouds 700ft. EDDV 220620Z AUTO 20007KT 170V230 9999 OVC012 09/07 Q0995 TEMPO 4000 DZ BKN007
MVFR 8°C / 7°C 200º 7kt 9700m Light Rain Light Drizzle 0.20mm precipitation Few Clouds 700ft
Overcast 1400ft
995 Temporary: Visibility 4000. Drizzle . Broken Clouds 700ft. EDDV 220550Z AUTO 20007KT 9999 -RADZ FEW007 OVC014 08/07 Q0995 TEMPO 4000 DZ BKN007
MVFR 8°C / 7°C 200º variable 170º to 230º 7kt 8000m Light Drizzle 0.20mm precipitation Few Clouds 700ft
Scattered Clouds 1200ft
Overcast 1700ft
995 Temporary: Visibility 4000. Broken Clouds 1200ft. EDDV 220520Z AUTO 20007KT 170V230 8000 -DZ FEW007 SCT012 OVC017 08/07 Q0995 TEMPO 4000 BKN012
MVFR 8°C / 7°C 200º variable 170º to 230º 7kt 7000m Light Drizzle 0.20mm precipitation Few Clouds 700ft
Broken Clouds 1200ft
Overcast 1800ft
996 Temporary: Visibility 4000. Broken Clouds 900ft. EDDV 220450Z AUTO 20007KT 170V230 7000 -DZ FEW007 BKN012 OVC018 08/07 Q0996 TEMPO 4000 BKN009
MVFR 8°C / 7°C 190º variable 160º to 220º 7kt 9700m Light Rain Light Drizzle 0.20mm precipitation Broken Clouds 1300ft
Overcast 1800ft
996 Temporary: Visibility 4000. Broken Clouds 900ft. EDDV 220420Z AUTO 19007KT 160V220 9999 -RADZ BKN013 OVC018 08/07 Q0996 TEMPO 4000 BKN009
MVFR 8°C / 7°C 190º variable 140º to 210º 7kt 9700m Light Rain Light Drizzle 0.20mm precipitation Overcast 1700ft 996 Temporary: Visibility 4000. Broken Clouds 1400ft. EDDV 220350Z AUTO 19007KT 140V210 9999 -RADZ OVC017 08/07 Q0996 TEMPO 4000 BKN014
MVFR 8°C / 7°C 190º variable 160º to 220º 7kt 9700m Light Rain Light Drizzle 0.20mm precipitation Broken Clouds 1800ft
Overcast 2200ft
997 - EDDV 220320Z AUTO 19007KT 160V220 9999 -RADZ BKN018 OVC022 08/07 Q0997
MVFR 8°C / 7°C 190º variable 160º to 220º 8kt 9700m Light Rain 1.00mm precipitation Overcast 2100ft 997 - EDDV 220250Z AUTO 19008KT 160V220 9999 -RA OVC021 08/07 Q0997
MVFR 8°C / 6°C 190º 8kt 9700m Light Rain 1.00mm precipitation Overcast 2100ft 998 - EDDV 220220Z AUTO 19008KT 9999 -RA OVC021 08/06 Q0998
MVFR 8°C / 6°C 190º variable 160º to 220º 10kt 9700m Light Rain 1.00mm precipitation Overcast 2200ft 998 - EDDV 220150Z AUTO 19010KT 160V220 9999 -RA OVC022 08/06 Q0998
MVFR 8°C / 6°C 190º variable 160º to 220º 9kt 9700m Light Rain 1.00mm precipitation Overcast 2300ft 999 - EDDV 220120Z AUTO 19009KT 160V220 9999 -RA OVC023 08/06 Q0999
MVFR 8°C / 6°C 200º variable 160º to 220º 9kt 9700m Light Rain 1.00mm precipitation Overcast 2300ft 999 - EDDV 220050Z AUTO 20009KT 160V220 9999 -RA OVC023 08/06 Q0999
MVFR 8°C / 5°C 190º variable 160º to 220º 11kt 9700m Light Rain 1.00mm precipitation Overcast 2600ft 1000 - EDDV 220020Z AUTO 19011KT 160V220 9999 -RA OVC026 08/05 Q1000
MVFR 8°C / 5°C 190º variable 160º to 230º 9kt 9700m Light Rain 1.00mm precipitation Overcast 2800ft 1001 - EDDV 212350Z AUTO 19009KT 160V230 9999 -RA OVC028 08/05 Q1001
MVFR 9°C / 5°C 200º 10kt 9700m Light Rain 1.00mm precipitation Overcast 2900ft 1001 - EDDV 212320Z AUTO 20010KT 9999 -RA OVC029 09/05 Q1001
MVFR 9°C / 4°C 200º variable 160º to 240º 12kt 9700m Light Rain 1.00mm precipitation Overcast 3000ft 1002 - EDDV 212250Z AUTO 20012KT 160V240 9999 -RA OVC030 09/04 Q1002
VFR 9°C / 4°C 200º variable 160º to 230º 15kt 9700m Light Rain Light Drizzle 0.20mm precipitation Overcast 3100ft 1002 - EDDV 212220Z AUTO 20015KT 160V230 9999 -RADZ OVC031 09/04 Q1002
VFR 10°C / 4°C 190º variable 150º to 230º 14kt Gust 25kt 9700m - Overcast 3500ft 1003 - EDDV 212150Z AUTO 19014G25KT 150V230 9999 OVC035 10/04 Q1003
VFR 9°C / 4°C 190º variable 160º to 220º 10kt 9700m - Overcast 3900ft 1004 - EDDV 212120Z AUTO 19010KT 160V220 9999 OVC039 09/04 Q1004
VFR 10°C / 4°C 180º variable 150º to 210º 9kt 9700m Light Rain 1.00mm precipitation Broken Clouds 4200ft 1004 Temporary: Wind 180º 15kt. Gust 25KT. EDDV 212050Z AUTO 18009KT 150V210 9999 -RA BKN042 10/04 Q1004 TEMPO 18015G25KT
VFR 10°C / 3°C 190º variable 150º to 220º 10kt 9700m Light Rain Light Drizzle 0.20mm precipitation Broken Clouds 4400ft 1005 Temporary: Wind 180º 15kt. Gust 25KT. EDDV 212020Z AUTO 19010KT 150V220 9999 -RADZ BKN044 10/03 Q1005 TEMPO 18015G25KT
VFR 10°C / 3°C 190º variable 160º to 220º 11kt 9700m - Scattered Clouds 4500ft 1006 Temporary: Wind 180º 15kt. Gust 25KT. EDDV 211950Z AUTO 19011KT 160V220 9999 SCT045 10/03 Q1006 TEMPO 18015G25KT

IFR

9°C / 8°C

[Più]
Vento 210º variable 180º to 240º 7kt
Visibilità 2500m
Meteo Light Rain Light Drizzle Mist 0.20mm precipitation
Nuvole Scattered Clouds 600ft
Overcast 1100ft
Pressione 994
Cambiamento Temporary: Visibility 4000. Drizzle . Broken Clouds 600ft.
Grezzo EDDV 220720Z AUTO 21007KT 180V240 2500 -RADZ BR SCT006 OVC011 09/08 Q0994 REDZ TEMPO 4000 DZ BKN006

MVFR

8°C / 8°C

[Più]
Vento 200º variable 170º to 230º 6kt
Visibilità 6000m
Meteo -
Nuvole Few Clouds 700ft
Overcast 1300ft
Pressione 994
Cambiamento Temporary: Visibility 4000. Drizzle . Broken Clouds 700ft.
Grezzo EDDV 220650Z AUTO 20006KT 170V230 6000 FEW007 OVC013 08/08 Q0994 REDZ TEMPO 4000 DZ BKN007

MVFR

9°C / 7°C

[Più]
Vento 200º variable 170º to 230º 7kt
Visibilità 9700m
Meteo -
Nuvole Overcast 1200ft
Pressione 995
Cambiamento Temporary: Visibility 4000. Drizzle . Broken Clouds 700ft.
Grezzo EDDV 220620Z AUTO 20007KT 170V230 9999 OVC012 09/07 Q0995 TEMPO 4000 DZ BKN007

MVFR

8°C / 7°C

[Più]
Vento 200º 7kt
Visibilità 9700m
Meteo Light Rain Light Drizzle 0.20mm precipitation
Nuvole Few Clouds 700ft
Overcast 1400ft
Pressione 995
Cambiamento Temporary: Visibility 4000. Drizzle . Broken Clouds 700ft.
Grezzo EDDV 220550Z AUTO 20007KT 9999 -RADZ FEW007 OVC014 08/07 Q0995 TEMPO 4000 DZ BKN007

MVFR

8°C / 7°C

[Più]
Vento 200º variable 170º to 230º 7kt
Visibilità 8000m
Meteo Light Drizzle 0.20mm precipitation
Nuvole Few Clouds 700ft
Scattered Clouds 1200ft
Overcast 1700ft
Pressione 995
Cambiamento Temporary: Visibility 4000. Broken Clouds 1200ft.
Grezzo EDDV 220520Z AUTO 20007KT 170V230 8000 -DZ FEW007 SCT012 OVC017 08/07 Q0995 TEMPO 4000 BKN012

MVFR

8°C / 7°C

[Più]
Vento 200º variable 170º to 230º 7kt
Visibilità 7000m
Meteo Light Drizzle 0.20mm precipitation
Nuvole Few Clouds 700ft
Broken Clouds 1200ft
Overcast 1800ft
Pressione 996
Cambiamento Temporary: Visibility 4000. Broken Clouds 900ft.
Grezzo EDDV 220450Z AUTO 20007KT 170V230 7000 -DZ FEW007 BKN012 OVC018 08/07 Q0996 TEMPO 4000 BKN009

MVFR

8°C / 7°C

[Più]
Vento 190º variable 160º to 220º 7kt
Visibilità 9700m
Meteo Light Rain Light Drizzle 0.20mm precipitation
Nuvole Broken Clouds 1300ft
Overcast 1800ft
Pressione 996
Cambiamento Temporary: Visibility 4000. Broken Clouds 900ft.
Grezzo EDDV 220420Z AUTO 19007KT 160V220 9999 -RADZ BKN013 OVC018 08/07 Q0996 TEMPO 4000 BKN009

MVFR

8°C / 7°C

[Più]
Vento 190º variable 140º to 210º 7kt
Visibilità 9700m
Meteo Light Rain Light Drizzle 0.20mm precipitation
Nuvole Overcast 1700ft
Pressione 996
Cambiamento Temporary: Visibility 4000. Broken Clouds 1400ft.
Grezzo EDDV 220350Z AUTO 19007KT 140V210 9999 -RADZ OVC017 08/07 Q0996 TEMPO 4000 BKN014

MVFR

8°C / 7°C

[Più]
Vento 190º variable 160º to 220º 7kt
Visibilità 9700m
Meteo Light Rain Light Drizzle 0.20mm precipitation
Nuvole Broken Clouds 1800ft
Overcast 2200ft
Pressione 997
Cambiamento -
Grezzo EDDV 220320Z AUTO 19007KT 160V220 9999 -RADZ BKN018 OVC022 08/07 Q0997

MVFR

8°C / 7°C

[Più]
Vento 190º variable 160º to 220º 8kt
Visibilità 9700m
Meteo Light Rain 1.00mm precipitation
Nuvole Overcast 2100ft
Pressione 997
Cambiamento -
Grezzo EDDV 220250Z AUTO 19008KT 160V220 9999 -RA OVC021 08/07 Q0997

MVFR

8°C / 6°C

[Più]
Vento 190º 8kt
Visibilità 9700m
Meteo Light Rain 1.00mm precipitation
Nuvole Overcast 2100ft
Pressione 998
Cambiamento -
Grezzo EDDV 220220Z AUTO 19008KT 9999 -RA OVC021 08/06 Q0998

MVFR

8°C / 6°C

[Più]
Vento 190º variable 160º to 220º 10kt
Visibilità 9700m
Meteo Light Rain 1.00mm precipitation
Nuvole Overcast 2200ft
Pressione 998
Cambiamento -
Grezzo EDDV 220150Z AUTO 19010KT 160V220 9999 -RA OVC022 08/06 Q0998

MVFR

8°C / 6°C

[Più]
Vento 190º variable 160º to 220º 9kt
Visibilità 9700m
Meteo Light Rain 1.00mm precipitation
Nuvole Overcast 2300ft
Pressione 999
Cambiamento -
Grezzo EDDV 220120Z AUTO 19009KT 160V220 9999 -RA OVC023 08/06 Q0999

MVFR

8°C / 6°C

[Più]
Vento 200º variable 160º to 220º 9kt
Visibilità 9700m
Meteo Light Rain 1.00mm precipitation
Nuvole Overcast 2300ft
Pressione 999
Cambiamento -
Grezzo EDDV 220050Z AUTO 20009KT 160V220 9999 -RA OVC023 08/06 Q0999

MVFR

8°C / 5°C

[Più]
Vento 190º variable 160º to 220º 11kt
Visibilità 9700m
Meteo Light Rain 1.00mm precipitation
Nuvole Overcast 2600ft
Pressione 1000
Cambiamento -
Grezzo EDDV 220020Z AUTO 19011KT 160V220 9999 -RA OVC026 08/05 Q1000

MVFR

8°C / 5°C

[Più]
Vento 190º variable 160º to 230º 9kt
Visibilità 9700m
Meteo Light Rain 1.00mm precipitation
Nuvole Overcast 2800ft
Pressione 1001
Cambiamento -
Grezzo EDDV 212350Z AUTO 19009KT 160V230 9999 -RA OVC028 08/05 Q1001

MVFR

9°C / 5°C

[Più]
Vento 200º 10kt
Visibilità 9700m
Meteo Light Rain 1.00mm precipitation
Nuvole Overcast 2900ft
Pressione 1001
Cambiamento -
Grezzo EDDV 212320Z AUTO 20010KT 9999 -RA OVC029 09/05 Q1001

MVFR

9°C / 4°C

[Più]
Vento 200º variable 160º to 240º 12kt
Visibilità 9700m
Meteo Light Rain 1.00mm precipitation
Nuvole Overcast 3000ft
Pressione 1002
Cambiamento -
Grezzo EDDV 212250Z AUTO 20012KT 160V240 9999 -RA OVC030 09/04 Q1002

VFR

9°C / 4°C

[Più]
Vento 200º variable 160º to 230º 15kt
Visibilità 9700m
Meteo Light Rain Light Drizzle 0.20mm precipitation
Nuvole Overcast 3100ft
Pressione 1002
Cambiamento -
Grezzo EDDV 212220Z AUTO 20015KT 160V230 9999 -RADZ OVC031 09/04 Q1002

VFR

10°C / 4°C

[Più]
Vento 190º variable 150º to 230º 14kt Gust 25kt
Visibilità 9700m
Meteo -
Nuvole Overcast 3500ft
Pressione 1003
Cambiamento -
Grezzo EDDV 212150Z AUTO 19014G25KT 150V230 9999 OVC035 10/04 Q1003

VFR

9°C / 4°C

[Più]
Vento 190º variable 160º to 220º 10kt
Visibilità 9700m
Meteo -
Nuvole Overcast 3900ft
Pressione 1004
Cambiamento -
Grezzo EDDV 212120Z AUTO 19010KT 160V220 9999 OVC039 09/04 Q1004

VFR

10°C / 4°C

[Più]
Vento 180º variable 150º to 210º 9kt
Visibilità 9700m
Meteo Light Rain 1.00mm precipitation
Nuvole Broken Clouds 4200ft
Pressione 1004
Cambiamento Temporary: Wind 180º 15kt. Gust 25KT.
Grezzo EDDV 212050Z AUTO 18009KT 150V210 9999 -RA BKN042 10/04 Q1004 TEMPO 18015G25KT

VFR

10°C / 3°C

[Più]
Vento 190º variable 150º to 220º 10kt
Visibilità 9700m
Meteo Light Rain Light Drizzle 0.20mm precipitation
Nuvole Broken Clouds 4400ft
Pressione 1005
Cambiamento Temporary: Wind 180º 15kt. Gust 25KT.
Grezzo EDDV 212020Z AUTO 19010KT 150V220 9999 -RADZ BKN044 10/03 Q1005 TEMPO 18015G25KT

VFR

10°C / 3°C

[Più]
Vento 190º variable 160º to 220º 11kt
Visibilità 9700m
Meteo -
Nuvole Scattered Clouds 4500ft
Pressione 1006
Cambiamento Temporary: Wind 180º 15kt. Gust 25KT.
Grezzo EDDV 211950Z AUTO 19011KT 160V220 9999 SCT045 10/03 Q1006 TEMPO 18015G25KT

TAF per Bordenau (EDDV)

From till


From till Wind 190º 12kt. Visibility 9700m. Broken Clouds 1400ft.
Temporarly from till Visibility 4000m. Rain Drizzle . Broken Clouds 700ft.
Becoming from till
Becoming from till
Temporarly from till Rain .
Becoming from till
Temporarly from till Wind 230º 25kt. Gust 45kt.
With 40% probability, Temporarly from till Wind 230º 25kt. Gust 55kt.

Grezzo: TAF EDDV 220500Z 2206/2306 19012KT 9999 BKN014 TEMPO 2206/2209 4000 RADZ BKN007 BECMG 2209/2212 BKN025 BECMG 2214/2217 17015G25KT TEMPO 2217/2221 RA BECMG 2219/2221 21020G35KT TEMPO 2221/2303 23025G45KT PROB40 TEMPO 2222/2301 23025G55KT

rainNOW: Pioggia nowcast per Bordenau e dintorni (raggio di 25 km)

0.0 mm
0.0 mm
0.0 mm
0.0 mm
0.0 mm
0.0 mm
0.0 mm
0.0 mm
0.0 mm
0.0 mm
0.0 mm
0.0 mm

Radar e nowcasting per Bordenau

Pioviggine
Lieve
Moderato
Forte
Molto forte
Grandine

Il segnaposto è situato a Bordenau. Questa animazione mostra il radar delle precipitazioni per l'intervallo di tempo selezionato, nonché una previsione di 2h. Le croci arancioni indicano i fulmini. Dati forniti da nowcast.de (disponibili in USA, Europa e Australia). La pioviggine o una leggera nevicata potrebbero essere invisibili per il radar. L'intensità delle precipitazioni è codificata a colori, che vanno dal turchese al rosso.

Tempo in atto per Bordenau: immagine satellitare e pioggia, Germania

Il segnaposto è situato a Bordenau. [Più]

L'immagine satellitare in tempo reale combina la luce visibile durante il giorno con la radiazione infrarossa durante la notte. Di notte l'immagine non è scura poiché i raggi infrarossi possono rilevare differenze di temperatura. Purtroppo, le nuvole basse e la nebbia sono difficili da distinguere dalla temperatura del suolo e possono pertanto essere quasi invisibili durante la notte. Le immagini satellitari Meteosat per l'Europa vengono aggiornate in tempo reale ogni 5 minuti. Le immagini GOES-16 / GOES-17 (Nord e Sud America) e Himawari (Asia) vengono aggiornate ogni 10 minuti.

Le precipitazioni sono stimate da radar e satelliti. I calcoli delle precipitazioni dai satelliti sono meno accurati di notte che durante il giorno.

© 2024 meteoblue, NOAA Satellites GOES-16 and EUMETSAT. Fulminazioni fornite da nowcast.

Tornare su
×
Salve,
sembra che stiate usando un blocco degli annunci.

La pubblicità è essenziale per mantenere il nostro sito Web gratuito con dettagli e accuratezza unici.

Si prega di inserire www.meteoblue.com nella whitelist del vostro blocco degli annunci o di considerare l'acquisto di uno dei nostri prodotti:

Avete già un abbonamento?
Allora per favore eseguite il login.